Time;durP1;ratioP1;P1;durP2;ratioP2;P2;SDS_P1;SDS_P2;PMS_P1;PMS_P2;Temp;Humidity;BMP_temperature;BMP_pressure;BME280_temperature;BME280_humidity;BME280_pressure;Samples;Min_cycle;Max_cycle;Signal;HPM_P1;HPM_P2
2024/01/02 00:00:18;;;;;;;;;;;;;;;5.98;100.00;100002.78;5057796;28;19923;-69
2024/01/02 00:02:43;;;;;;;;;;;;;;;5.93;100.00;99987.16;5033950;28;19921;-69
2024/01/02 00:05:08;;;;;;;;;;;;;;;6.00;100.00;99975.84;5023068;28;20291;-69
2024/01/02 00:07:34;;;;;;;;;;;;;;;5.98;100.00;99981.97;5046992;28;19970;-69
2024/01/02 00:09:59;;;;;;;;;;;;;;;5.98;100.00;99976.78;5051566;28;20370;-69
2024/01/02 00:12:24;;;;;;;;;;;;;;;5.95;100.00;99966.31;5048171;28;20284;-69
2024/01/02 00:14:53;;;;;;;;;;;;;;;5.82;100.00;99971.63;5025184;28;19940;-68
2024/01/02 00:17:18;;;;;;;;;;;;;;;6.04;100.00;99959.38;5047569;28;20384;-69
2024/01/02 00:19:43;;;;;;;;;;;;;;;5.98;100.00;99949.00;5068058;28;19948;-68
2024/01/02 00:22:09;;;;;;;;;;;;;;;5.99;100.00;99939.47;5055184;28;20718;-68
2024/01/02 00:24:34;;;;;;;;;;;;;;;6.07;100.00;99935.06;5062937;28;20411;-68
2024/01/02 00:27:02;;;;;;;;;;;;;;;5.93;100.00;99923.88;5044376;28;19929;-68
2024/01/02 00:29:27;;;;;;;;;;;;;;;6.19;100.00;99910.69;5069402;28;20281;-69
2024/01/02 00:31:52;;;;;;;;;;;;;;;6.15;100.00;99909.88;5063785;28;19932;-69
2024/01/02 00:34:17;;;;;;;;;;;;;;;6.12;100.00;99899.50;5035431;28;19924;-69
2024/01/02 00:36:43;;;;;;;;;;;;;;;6.11;100.00;99881.31;5052238;28;19917;-69
2024/01/02 00:39:08;;;;;;;;;;;;;;;6.20;100.00;99876.00;5034779;28;19928;-70
2024/01/02 00:41:33;;;;;;;;;;;;;;;6.10;100.00;99859.63;5037688;28;20395;-70
2024/01/02 00:43:59;;;;;;;;;;;;;;;6.16;100.00;99843.09;5051989;28;19931;-69
2024/01/02 00:46:24;;;;;;;;;;;;;;;6.24;100.00;99847.34;5060227;28;19991;-69
2024/01/02 00:48:49;;;;;;;;;;;;;;;6.22;100.00;99810.09;5034951;28;20284;-69
2024/01/02 00:51:15;;;;;;;;;;;;;;;6.17;100.00;99814.47;5053557;28;20276;-70
2024/01/02 00:53:41;;;;;;;;;;;;;;;6.25;100.00;99785.78;5053457;28;19924;-71
2024/01/02 00:56:06;;;;;;;;;;;;;;;6.19;100.00;99789.31;5041766;28;20269;-69
2024/01/02 00:58:35;;;;;;;;;;;;;;;6.34;100.00;99769.19;5015508;28;20439;-68
2024/01/02 01:01:00;;;;;;;;;;;;;;;6.27;100.00;99757.13;5028593;28;19996;-70
2024/01/02 01:03:25;;;;;;;;;;;;;;;6.21;100.00;99739.84;5025733;28;19948;-70
2024/01/02 01:05:51;;;;;;;;;;;;;;;6.30;100.00;99744.94;5025957;28;20419;-70
2024/01/02 01:08:16;;;;;;;;;;;;;;;6.28;100.00;99738.03;5028834;28;20450;-71
2024/01/02 01:10:41;;;;;;;;;;;;;;;6.29;100.00;99718.94;5013770;28;19956;-71
2024/01/02 01:13:07;;;;;;;;;;;;;;;6.19;100.00;99716.47;5015100;28;20369;-71
2024/01/02 01:15:32;;;;;;;;;;;;;;;6.20;100.00;99707.75;5031679;28;19917;-70
2024/01/02 01:17:58;;;;;;;;;;;;;;;6.29;100.00;99701.56;5049381;28;20431;-71
2024/01/02 01:20:23;;;;;;;;;;;;;;;6.11;100.00;99683.63;5032948;28;19995;-70
2024/01/02 01:22:48;;;;;;;;;;;;;;;6.27;100.00;99690.34;5033806;28;20401;-70
2024/01/02 01:25:13;;;;;;;;;;;;;;;6.36;100.00;99668.56;5025682;28;19921;-70
2024/01/02 01:27:39;;;;;;;;;;;;;;;6.23;100.00;99668.72;5030785;28;20292;-71
2024/01/02 01:30:04;;;;;;;;;;;;;;;6.35;100.00;99659.00;5033480;28;20391;-70
2024/01/02 01:32:31;;;;;;;;;;;;;;;6.24;100.00;99654.81;5032394;28;19929;-70
2024/01/02 01:34:56;;;;;;;;;;;;;;;6.18;100.00;99635.84;5027207;28;19952;-70
2024/01/02 01:37:21;;;;;;;;;;;;;;;6.32;100.00;99615.72;5043938;28;20296;-71
2024/01/02 01:39:47;;;;;;;;;;;;;;;6.36;100.00;99612.16;5028850;28;20012;-71
2024/01/02 01:42:12;;;;;;;;;;;;;;;6.36;100.00;99603.50;5032871;28;19951;-72
2024/01/02 01:44:37;;;;;;;;;;;;;;;6.34;100.00;99600.06;5021535;28;20016;-70
2024/01/02 01:47:04;;;;;;;;;;;;;;;6.30;100.00;99598.38;5016119;28;19944;-71
2024/01/02 01:49:30;;;;;;;;;;;;;;;6.21;100.00;99579.41;5024114;28;19929;-71
2024/01/02 01:51:56;;;;;;;;;;;;;;;6.36;100.00;99585.28;5031749;28;19933;-69
2024/01/02 01:54:21;;;;;;;;;;;;;;;6.37;100.00;99559.25;5032959;28;20288;-72
2024/01/02 01:56:47;;;;;;;;;;;;;;;6.32;100.00;99552.38;5031955;28;19978;-71
2024/01/02 01:59:13;;;;;;;;;;;;;;;6.48;100.00;99553.00;5047965;28;20043;-70
2024/01/02 02:01:38;;;;;;;;;;;;;;;6.30;100.00;99535.94;5053093;28;19925;-71
2024/01/02 02:04:04;;;;;;;;;;;;;;;6.39;100.00;99531.47;5032831;28;19917;-70
2024/01/02 02:06:29;;;;;;;;;;;;;;;6.19;100.00;99528.28;5040407;28;19985;-70
2024/01/02 02:08:55;;;;;;;;;;;;;;;6.29;100.00;99510.81;5044764;28;19925;-71
2024/01/02 02:11:21;;;;;;;;;;;;;;;6.32;100.00;99498.63;5042037;28;19925;-70
2024/01/02 02:13:49;;;;;;;;;;;;;;;6.35;100.00;99500.28;5047442;28;20010;-70
2024/01/02 02:16:15;;;;;;;;;;;;;;;6.32;100.00;99498.63;5033470;28;20014;-70
2024/01/02 02:18:40;;;;;;;;;;;;;;;6.36;100.00;99489.00;5036718;28;20424;-72
2024/01/02 02:21:06;;;;;;;;;;;;;;;6.31;100.00;99476.09;5048842;28;19928;-71
2024/01/02 02:23:31;;;;;;;;;;;;;;;6.27;100.00;99469.22;5040414;28;19921;-76
2024/01/02 02:25:56;;;;;;;;;;;;;;;6.29;100.00;99453.56;5038360;28;19924;-77
2024/01/02 02:28:22;;;;;;;;;;;;;;;6.49;100.00;99456.69;5044338;28;20067;-78
2024/01/02 02:30:49;;;;;;;;;;;;;;;6.33;100.00;99434.44;5028795;28;20021;-78
2024/01/02 02:33:15;;;;;;;;;;;;;;;6.43;100.00;99438.59;5047670;28;19935;-79
2024/01/02 02:35:40;;;;;;;;;;;;;;;6.41;100.00;99427.34;5023926;28;19921;-79
2024/01/02 02:38:05;;;;;;;;;;;;;;;6.35;100.00;99422.25;5030310;28;20284;-71
2024/01/02 02:40:31;;;;;;;;;;;;;;;6.47;100.00;99427.25;5015433;28;20293;-71
2024/01/02 02:42:56;;;;;;;;;;;;;;;6.46;100.00;99404.69;5031350;28;19916;-71
2024/01/02 02:45:21;;;;;;;;;;;;;;;6.41;100.00;99396.13;5032014;28;19925;-80
2024/01/02 02:47:47;;;;;;;;;;;;;;;6.37;100.00;99379.69;5017009;28;20380;-80
2024/01/02 02:50:12;;;;;;;;;;;;;;;6.32;100.00;99385.88;5012464;28;20361;-75
2024/01/02 02:52:38;;;;;;;;;;;;;;;6.50;100.00;99372.53;5014871;28;20039;-79
2024/01/02 02:55:03;;;;;;;;;;;;;;;6.44;100.00;99351.84;5034578;28;20451;-80
2024/01/02 02:57:29;;;;;;;;;;;;;;;6.58;100.00;99336.81;5044965;28;20439;-78
2024/01/02 02:59:54;;;;;;;;;;;;;;;6.61;100.00;99342.84;5031677;28;19929;-78
2024/01/02 03:02:19;;;;;;;;;;;;;;;6.47;100.00;99335.31;5054928;28;20016;-80
2024/01/02 03:04:45;;;;;;;;;;;;;;;6.53;100.00;99317.81;5039193;28;19920;-76
2024/01/02 03:07:10;;;;;;;;;;;;;;;6.50;100.00;99304.88;5054114;28;19927;-79
2024/01/02 03:09:36;;;;;;;;;;;;;;;6.44;100.00;99297.19;5068216;28;19924;-78
2024/01/02 03:12:01;;;;;;;;;;;;;;;6.33;100.00;99307.78;5033583;28;20033;-79
2024/01/02 03:14:27;;;;;;;;;;;;;;;6.44;100.00;99276.38;5048859;28;20316;-79
2024/01/02 03:16:52;;;;;;;;;;;;;;;6.46;100.00;99271.97;5045393;28;19927;-80
2024/01/02 03:19:18;;;;;;;;;;;;;;;6.47;100.00;99268.50;5029480;28;20010;-80
2024/01/02 03:21:43;;;;;;;;;;;;;;;6.50;100.00;99265.84;5039340;28;20002;-79
2024/01/02 03:24:08;;;;;;;;;;;;;;;6.52;100.00;99243.25;5048516;28;19963;-80
2024/01/02 03:26:34;;;;;;;;;;;;;;;6.48;100.00;99228.59;5046802;28;19920;-81
2024/01/02 03:28:59;;;;;;;;;;;;;;;6.52;100.00;99217.22;5049784;28;19929;-80
2024/01/02 03:31:24;;;;;;;;;;;;;;;6.61;100.00;99216.19;5048792;28;19937;-80
2024/01/02 03:33:51;;;;;;;;;;;;;;;6.51;100.00;99225.06;5039543;28;19925;-79
2024/01/02 03:36:19;;;;;;;;;;;;;;;6.65;100.00;99210.00;5043108;28;19924;-78
2024/01/02 03:38:45;;;;;;;;;;;;;;;6.48;100.00;99186.94;5051760;28;19925;-78
2024/01/02 03:41:10;;;;;;;;;;;;;;;6.70;100.00;99170.84;5051818;28;19942;-80
2024/01/02 03:43:37;;;;;;;;;;;;;;;6.72;100.00;99177.75;5066876;28;19917;-81
2024/01/02 03:46:02;;;;;;;;;;;;;;;6.58;100.00;99175.44;5047823;28;19925;-80
2024/01/02 03:48:28;;;;;;;;;;;;;;;6.65;100.00;99185.72;5034928;28;20394;-81
2024/01/02 03:50:53;;;;;;;;;;;;;;;6.63;100.00;99177.09;5043834;28;19959;-79
2024/01/02 03:53:18;;;;;;;;;;;;;;;6.65;100.00;99159.69;5041182;28;19932;-79
2024/01/02 03:55:44;;;;;;;;;;;;;;;6.83;100.00;99161.88;5056012;28;19932;-79
2024/01/02 03:58:09;;;;;;;;;;;;;;;6.80;100.00;99164.53;5046598;28;19929;-79
2024/01/02 04:00:35;;;;;;;;;;;;;;;6.74;100.00;99155.13;5050897;28;19931;-80
2024/01/02 04:03:01;;;;;;;;;;;;;;;6.91;100.00;99146.94;5055484;28;20042;-78
2024/01/02 04:05:28;;;;;;;;;;;;;;;6.91;100.00;99146.06;5053071;28;20293;-79
2024/01/02 04:07:53;;;;;;;;;;;;;;;6.84;100.00;99150.56;5046214;28;20360;-79
2024/01/02 04:10:18;;;;;;;;;;;;;;;7.07;100.00;99144.81;5029950;28;19959;-78
2024/01/02 04:12:44;;;;;;;;;;;;;;;6.85;100.00;99135.78;5036820;28;19979;-79
2024/01/02 04:15:09;;;;;;;;;;;;;;;6.99;100.00;99135.47;5055848;28;20063;-79
2024/01/02 04:17:35;;;;;;;;;;;;;;;7.02;100.00;99128.41;5038037;28;19943;-78
2024/01/02 04:20:01;;;;;;;;;;;;;;;7.06;100.00;99126.59;5056341;28;19917;-80
2024/01/02 04:22:26;;;;;;;;;;;;;;;7.08;100.00;99111.78;5057098;28;19920;-79
2024/01/02 04:24:52;;;;;;;;;;;;;;;7.28;100.00;99119.09;5037170;28;19967;-78
2024/01/02 04:27:17;;;;;;;;;;;;;;;7.20;100.00;99121.06;5049958;28;20050;-79
2024/01/02 04:29:42;;;;;;;;;;;;;;;7.27;100.00;99105.22;5051022;28;19959;-76
2024/01/02 04:32:08;;;;;;;;;;;;;;;7.26;100.00;99100.91;5051484;28;19929;-79
2024/01/02 04:34:33;;;;;;;;;;;;;;;7.21;100.00;99101.91;5045267;28;20014;-80
2024/01/02 04:36:59;;;;;;;;;;;;;;;7.37;100.00;99118.00;5047045;28;19924;-80
2024/01/02 04:39:24;;;;;;;;;;;;;;;7.21;100.00;99107.13;5045257;28;19936;-80
2024/01/02 04:41:50;;;;;;;;;;;;;;;7.20;100.00;99105.44;5029902;28;19931;-81
2024/01/02 04:44:15;;;;;;;;;;;;;;;7.28;100.00;99088.69;5052463;28;19940;-81
2024/01/02 04:46:41;;;;;;;;;;;;;;;7.24;100.00;99086.19;5048035;28;20008;-82
2024/01/02 04:49:06;;;;;;;;;;;;;;;7.37;100.00;99098.03;5046364;28;19952;-81
2024/01/02 04:51:32;;;;;;;;;;;;;;;7.43;100.00;99094.41;5037779;28;20400;-80
2024/01/02 04:53:58;;;;;;;;;;;;;;;7.41;100.00;99090.97;5039010;28;19971;-79
2024/01/02 04:56:23;;;;;;;;;;;;;;;7.41;100.00;99085.75;5050547;28;19924;-81
2024/01/02 04:58:51;;;;;;;;;;;;;;;7.43;100.00;99089.19;5048328;28;20407;-80
2024/01/02 05:01:19;;;;;;;;;;;;;;;7.45;100.00;99084.78;5060017;28;19963;-78
2024/01/02 05:03:45;;;;;;;;;;;;;;;7.55;100.00;99083.63;5048619;28;19991;-77
2024/01/02 05:06:10;;;;;;;;;;;;;;;7.58;100.00;99091.34;5043222;28;19917;-77
2024/01/02 05:08:35;;;;;;;;;;;;;;;7.69;100.00;99080.63;5056479;28;19916;-77
2024/01/02 05:11:01;;;;;;;;;;;;;;;7.67;100.00;99081.56;5042530;28;20360;-78
2024/01/02 05:13:26;;;;;;;;;;;;;;;7.66;100.00;99091.16;5029158;28;19920;-76
2024/01/02 05:15:51;;;;;;;;;;;;;;;7.76;100.00;99090.00;5022016;28;20032;-78
2024/01/02 05:18:17;;;;;;;;;;;;;;;7.76;100.00;99087.38;5050092;28;19955;-77
2024/01/02 05:20:42;;;;;;;;;;;;;;;7.84;100.00;99084.56;5050501;28;19927;-78
2024/01/02 05:23:08;;;;;;;;;;;;;;;7.88;100.00;99093.16;5062506;28;19920;-77
2024/01/02 05:25:36;;;;;;;;;;;;;;;7.89;100.00;99095.72;5054065;28;19924;-77
2024/01/02 05:28:01;;;;;;;;;;;;;;;7.95;100.00;99085.09;5038674;28;19920;-76
2024/01/02 05:30:26;;;;;;;;;;;;;;;8.02;100.00;99082.34;5034718;28;19928;-76
2024/01/02 05:32:52;;;;;;;;;;;;;;;8.09;100.00;99081.25;5047175;28;20311;-78
2024/01/02 05:35:18;;;;;;;;;;;;;;;8.16;100.00;99067.13;5062549;28;20360;-77
2024/01/02 05:37:43;;;;;;;;;;;;;;;8.24;100.00;99065.09;5046533;28;19975;-77
2024/01/02 05:40:09;;;;;;;;;;;;;;;8.31;100.00;99078.84;5060512;28;20331;-76
2024/01/02 05:42:35;;;;;;;;;;;;;;;8.33;100.00;99072.66;5044872;28;19927;-77
2024/01/02 05:45:00;;;;;;;;;;;;;;;8.38;100.00;99069.06;5066318;28;20261;-77
2024/01/02 05:47:25;;;;;;;;;;;;;;;8.42;100.00;99074.13;5062997;28;19939;-76
2024/01/02 05:49:51;;;;;;;;;;;;;;;8.47;100.00;99076.63;5038974;28;19920;-75
2024/01/02 05:52:17;;;;;;;;;;;;;;;8.49;100.00;99086.13;5056522;28;19920;-75
2024/01/02 05:54:42;;;;;;;;;;;;;;;8.57;100.00;99088.47;5046248;28;19978;-76
2024/01/02 05:57:07;;;;;;;;;;;;;;;8.61;100.00;99084.88;5064422;28;20004;-75
2024/01/02 05:59:34;;;;;;;;;;;;;;;8.66;100.00;99109.09;5036628;28;19920;-73
2024/01/02 06:01:59;;;;;;;;;;;;;;;8.69;100.00;99107.28;5038610;28;19924;-76
2024/01/02 06:04:24;;;;;;;;;;;;;;;8.73;100.00;99093.22;5035876;28;20345;-77
2024/01/02 06:06:50;;;;;;;;;;;;;;;8.79;100.00;99108.69;5054596;28;20455;-81
2024/01/02 06:09:15;;;;;;;;;;;;;;;8.84;100.00;99110.25;5046326;28;19934;-81
2024/01/02 06:11:41;;;;;;;;;;;;;;;8.87;100.00;99111.06;5047019;28;19925;-79
2024/01/02 06:14:06;;;;;;;;;;;;;;;8.93;100.00;99118.69;5042754;28;19928;-80
2024/01/02 06:16:31;;;;;;;;;;;;;;;8.93;100.00;99121.31;5042099;28;19928;-78
2024/01/02 06:18:57;;;;;;;;;;;;;;;8.93;100.00;99132.59;5038179;28;19943;-79
2024/01/02 06:21:22;;;;;;;;;;;;;;;8.97;100.00;99123.78;5036680;28;19956;-81
2024/01/02 06:23:48;;;;;;;;;;;;;;;9.01;100.00;99114.94;5059782;28;20003;-79
2024/01/02 06:26:13;;;;;;;;;;;;;;;9.00;100.00;99122.81;5044396;28;20344;-75
2024/01/02 06:28:38;;;;;;;;;;;;;;;9.05;100.00;99125.28;5050295;28;19924;-75
2024/01/02 06:31:07;;;;;;;;;;;;;;;9.07;100.00;99136.56;5040336;28;19917;-76
2024/01/02 06:33:32;;;;;;;;;;;;;;;9.08;100.00;99143.47;5030845;28;19924;-75
2024/01/02 06:35:58;;;;;;;;;;;;;;;9.12;100.00;99152.91;5058848;28;20277;-76
2024/01/02 06:38:24;;;;;;;;;;;;;;;9.18;100.00;99150.13;5050265;28;19924;-80
2024/01/02 06:40:49;;;;;;;;;;;;;;;9.19;100.00;99144.84;5034946;28;19928;-80
2024/01/02 06:43:14;;;;;;;;;;;;;;;9.19;100.00;99154.41;5050071;28;19925;-80
2024/01/02 06:45:40;;;;;;;;;;;;;;;9.20;100.00;99156.13;5049494;28;19930;-80
2024/01/02 06:48:06;;;;;;;;;;;;;;;9.21;100.00;99144.78;5043567;28;19920;-80
2024/01/02 06:50:32;;;;;;;;;;;;;;;9.27;100.00;99146.34;5070468;28;19923;-80
2024/01/02 06:53:03;;;;;;;;;;;;;;;9.26;100.00;99162.91;5052324;28;19921;-79
2024/01/02 06:55:28;;;;;;;;;;;;;;;9.26;100.00;99157.69;5046099;28;19971;-80
2024/01/02 06:57:53;;;;;;;;;;;;;;;9.27;100.00;99168.09;5036310;28;19975;-79
2024/01/02 07:00:19;;;;;;;;;;;;;;;9.31;100.00;99174.94;5041656;28;19923;-78
2024/01/02 07:02:44;;;;;;;;;;;;;;;9.32;100.00;99175.78;5047722;28;19924;-78
2024/01/02 07:05:14;;;;;;;;;;;;;;;9.33;100.00;99180.94;5042621;28;19917;-78
2024/01/02 07:07:41;;;;;;;;;;;;;;;9.38;100.00;99179.94;5038791;28;19916;-79
2024/01/02 07:10:06;;;;;;;;;;;;;;;9.38;100.00;99183.44;5046894;28;19948;-79
2024/01/02 07:12:33;;;;;;;;;;;;;;;9.36;100.00;99193.91;5034567;28;20014;-78
2024/01/02 07:14:58;;;;;;;;;;;;;;;9.40;100.00;99176.38;5048946;28;20028;-77
2024/01/02 07:17:24;;;;;;;;;;;;;;;9.43;100.00;99193.72;5030045;28;20010;-79
2024/01/02 07:19:50;;;;;;;;;;;;;;;9.41;100.00;99201.63;5049760;28;20014;-78
2024/01/02 07:22:15;;;;;;;;;;;;;;;9.41;100.00;99192.91;5050704;28;20007;-78
2024/01/02 07:24:41;;;;;;;;;;;;;;;9.44;100.00;99193.69;5034133;28;20441;-79
2024/01/02 07:27:07;;;;;;;;;;;;;;;9.46;100.00;99198.84;5050299;28;19963;-79
2024/01/02 07:29:32;;;;;;;;;;;;;;;9.44;100.00;99198.91;5049364;28;19917;-79
2024/01/02 07:32:04;;;;;;;;;;;;;;;9.45;100.00;99202.38;5035125;28;19921;-79
2024/01/02 07:34:29;;;;;;;;;;;;;;;9.44;100.00;99216.34;5034333;28;19921;-78
2024/01/02 07:36:55;;;;;;;;;;;;;;;9.48;100.00;99210.97;5035823;28;20395;-79
2024/01/02 07:39:21;;;;;;;;;;;;;;;9.48;100.00;99213.59;5068621;28;20023;-79
2024/01/02 07:41:46;;;;;;;;;;;;;;;9.49;100.00;99220.50;5042072;28;20007;-80
2024/01/02 07:44:11;;;;;;;;;;;;;;;9.51;100.00;99236.16;5054315;28;19912;-79
2024/01/02 07:46:37;;;;;;;;;;;;;;;9.52;100.00;99230.91;5054513;28;19924;-80
2024/01/02 07:49:02;;;;;;;;;;;;;;;9.53;100.00;99229.13;5054778;28;19924;-79
2024/01/02 07:51:27;;;;;;;;;;;;;;;9.54;100.00;99233.44;5022035;28;20376;-79
2024/01/02 07:53:53;;;;;;;;;;;;;;;9.54;100.00;99246.53;5034485;28;19921;-78
2024/01/02 07:56:19;;;;;;;;;;;;;;;9.56;100.00;99246.47;5040975;28;20137;-79
2024/01/02 07:58:46;;;;;;;;;;;;;;;9.57;100.00;99246.41;5058149;28;19920;-78
2024/01/02 08:01:12;;;;;;;;;;;;;;;9.58;100.00;99257.72;5023943;28;19939;-79
2024/01/02 08:03:38;;;;;;;;;;;;;;;9.59;100.00;99251.59;5038307;28;19913;-81
2024/01/02 08:06:03;;;;;;;;;;;;;;;9.59;100.00;99251.59;5057537;28;20376;-78
2024/01/02 08:08:29;;;;;;;;;;;;;;;9.58;100.00;99248.09;5054358;28;19917;-79
2024/01/02 08:10:54;;;;;;;;;;;;;;;9.63;100.00;99247.97;5037819;28;19952;-78
2024/01/02 08:13:19;;;;;;;;;;;;;;;9.61;100.00;99252.38;5021562;28;19921;-80
2024/01/02 08:15:45;;;;;;;;;;;;;;;9.62;100.00;99254.94;5022271;28;19921;-75
2024/01/02 08:18:10;;;;;;;;;;;;;;;9.66;100.00;99258.34;5051176;28;19927;-76
2024/01/02 08:20:35;;;;;;;;;;;;;;;9.64;100.00;99261.00;5056481;28;19917;-78
2024/01/02 08:23:01;;;;;;;;;;;;;;;9.65;100.00;99262.69;5053971;28;19948;-80
2024/01/02 08:25:26;;;;;;;;;;;;;;;9.65;100.00;99264.47;5038957;28;19917;-80
2024/01/02 08:27:52;;;;;;;;;;;;;;;9.70;100.00;99266.03;5038417;28;20280;-80
2024/01/02 08:30:18;;;;;;;;;;;;;;;9.69;100.00;99268.69;5053385;28;20331;-79
2024/01/02 08:32:44;;;;;;;;;;;;;;;9.67;100.00;99267.91;5045621;28;19964;-80
2024/01/02 08:35:09;;;;;;;;;;;;;;;9.65;100.00;99267.91;5035171;28;19983;-78
2024/01/02 08:37:34;;;;;;;;;;;;;;;9.68;100.00;99262.63;5056314;28;20315;-79
2024/01/02 08:40:00;;;;;;;;;;;;;;;9.71;100.00;99259.03;5031992;28;19925;-79
2024/01/02 08:42:25;;;;;;;;;;;;;;;9.71;100.00;99262.50;5042511;28;19943;-78
2024/01/02 08:44:50;;;;;;;;;;;;;;;9.73;100.00;99256.38;5037986;28;19920;-78
2024/01/02 08:47:16;;;;;;;;;;;;;;;9.74;100.00;99251.09;5047028;28;19940;-78
2024/01/02 08:49:41;;;;;;;;;;;;;;;9.77;100.00;99245.75;5041712;28;19924;-78
2024/01/02 08:52:07;;;;;;;;;;;;;;;9.77;100.00;99244.88;5045371;28;19928;-78
2024/01/02 08:54:32;;;;;;;;;;;;;;;9.77;100.00;99244.88;5028646;28;19936;-78
2024/01/02 08:56:57;;;;;;;;;;;;;;;9.77;100.00;99243.13;5044877;28;19931;-79
2024/01/02 08:59:23;;;;;;;;;;;;;;;9.80;100.00;99244.81;5042908;28;19921;-79
2024/01/02 09:01:51;;;;;;;;;;;;;;;9.82;100.00;99235.97;5038496;28;19929;-78
2024/01/02 09:04:17;;;;;;;;;;;;;;;9.85;100.00;99235.84;5058476;28;20396;-78
2024/01/02 09:06:43;;;;;;;;;;;;;;;9.94;100.00;99234.72;5045568;28;20630;-79
2024/01/02 09:09:08;;;;;;;;;;;;;;;9.93;100.00;99229.50;5046257;28;20030;-79
2024/01/02 09:11:34;;;;;;;;;;;;;;;9.99;100.00;99230.16;5069434;28;19963;-78
2024/01/02 09:14:00;;;;;;;;;;;;;;;10.01;100.00;99228.34;5040689;28;19951;-79
2024/01/02 09:16:31;;;;;;;;;;;;;;;10.06;100.00;99226.41;5047355;28;19929;-74
2024/01/02 09:18:57;;;;;;;;;;;;;;;10.19;100.00;99220.75;5017848;28;19917;-74
2024/01/02 09:21:22;;;;;;;;;;;;;;;10.06;100.00;99218.56;5041523;28;19974;-73
2024/01/02 09:23:48;;;;;;;;;;;;;;;10.14;100.00;99212.19;5045884;28;19917;-75
2024/01/02 09:26:19;;;;;;;;;;;;;;;10.10;100.00;99205.38;5034207;28;19956;-74
2024/01/02 09:28:44;;;;;;;;;;;;;;;10.12;100.00;99190.47;5194351;22;19978;-77
2024/01/02 09:33:45;;;;;;;;;;;;;;;10.08;100.00;99199.34;5228643;22;19977;-73
2024/01/02 09:38:45;;;;;;;;;;;;;;;10.10;100.00;99198.38;5323465;22;19929;-74
2024/01/02 09:41:26;;;;;;;;;;;;;;;10.13;100.00;99203.50;5037139;28;19943;-74
2024/01/02 09:43:51;;;;;;;;;;;;;;;10.11;100.00;99205.31;5047956;28;19917;-74
2024/01/02 09:46:32;;;;;;;;;;;;;;;10.11;100.00;99204.47;5053950;28;19963;-74
2024/01/02 09:49:15;;;;;;;;;;;;;;;10.13;100.00;99210.47;5053313;28;20291;-73
2024/01/02 09:51:49;;;;;;;;;;;;;;;10.18;100.00;99208.56;5049030;28;19920;-73
2024/01/02 09:54:17;;;;;;;;;;;;;;;10.24;100.00;99205.72;5047440;28;20027;-74
2024/01/02 09:56:46;;;;;;;;;;;;;;;10.21;100.00;99196.22;5053595;28;19912;-73
2024/01/02 09:59:11;;;;;;;;;;;;;;;10.22;100.00;99211.00;5054147;28;19921;-73
2024/01/02 10:01:59;;;;;;;;;;;;;;;10.30;100.00;99200.28;5054357;28;19966;-74
2024/01/02 10:04:34;;;;;;;;;;;;;;;10.28;100.00;99196.00;5052389;28;19917;-74
2024/01/02 10:07:23;;;;;;;;;;;;;;;10.27;100.00;99205.63;5054349;28;19912;-74
2024/01/02 10:10:12;;;;;;;;;;;;;;;10.29;100.00;99195.09;5051990;28;19938;-77
2024/01/02 10:12:57;;;;;;;;;;;;;;;10.28;100.00;99196.00;5044480;28;19921;-80
2024/01/02 10:15:22;;;;;;;;;;;;;;;10.29;100.00;99201.19;5051942;28;19959;-78
2024/01/02 10:17:47;;;;;;;;;;;;;;;10.33;100.00;99196.66;5054439;28;20258;-74
2024/01/02 10:20:15;;;;;;;;;;;;;;;10.35;100.00;99189.66;5053661;28;19991;-78
2024/01/02 10:23:15;;;;;;;;;;;;;;;10.33;100.00;99192.31;5051652;28;19916;-73
2024/01/02 10:25:40;;;;;;;;;;;;;;;10.35;100.00;99185.25;5004013;28;19926;-80
2024/01/02 10:28:06;;;;;;;;;;;;;;;10.42;100.00;99187.66;5035988;28;20374;-74
2024/01/02 10:30:35;;;;;;;;;;;;;;;10.43;100.00;99191.97;5052120;28;19923;-80
2024/01/02 10:33:03;;;;;;;;;;;;;;;10.44;100.00;99178.81;5050286;28;19973;-78
2024/01/02 10:35:36;;;;;;;;;;;;;;;10.46;100.00;99181.38;5038211;28;19924;-73
2024/01/02 10:38:04;;;;;;;;;;;;;;;10.48;100.00;99174.34;5043794;28;19924;-78
2024/01/02 10:40:30;;;;;;;;;;;;;;;10.51;100.00;99174.22;5032544;28;19963;-78
2024/01/02 10:43:04;;;;;;;;;;;;;;;10.55;100.00;99165.34;5016486;28;19947;-78
2024/01/02 10:45:33;;;;;;;;;;;;;;;10.56;100.00;99159.19;5030837;28;19972;-80
2024/01/02 10:48:11;;;;;;;;;;;;;;;10.57;100.00;99148.66;5031749;28;19920;-73
2024/01/02 10:50:43;;;;;;;;;;;;;;;10.55;100.00;99152.25;5030067;28;19917;-75
2024/01/02 10:53:31;;;;;;;;;;;;;;;10.59;100.00;99148.59;5031422;28;19994;-73
2024/01/02 10:56:13;;;;;;;;;;;;;;;10.61;100.00;99143.28;5032122;28;20368;-74
2024/01/02 10:58:46;;;;;;;;;;;;;;;10.61;100.00;99138.06;5031353;28;19920;-75
2024/01/02 11:01:16;;;;;;;;;;;;;;;10.60;100.00;99129.31;5033769;28;19945;-74
2024/01/02 11:04:11;;;;;;;;;;;;;;;10.56;100.00;99131.22;5034275;28;19963;-75
2024/01/02 11:06:44;;;;;;;;;;;;;;;10.51;100.00;99133.16;5016045;28;20375;-74
2024/01/02 11:09:26;;;;;;;;;;;;;;;10.53;100.00;99133.09;5015422;28;19925;-76
2024/01/02 11:11:53;;;;;;;;;;;;;;;10.49;100.00;99134.16;5028547;28;20376;-76
2024/01/02 11:14:20;;;;;;;;;;;;;;;10.46;100.00;99134.25;5011501;28;19928;-74
2024/01/02 11:16:49;;;;;;;;;;;;;;;10.38;100.00;99124.06;5017328;28;21542;-75
2024/01/02 11:19:15;;;;;;;;;;;;;;;10.38;100.00;99124.91;5017474;28;19948;-72
2024/01/02 11:21:50;;;;;;;;;;;;;;;10.30;100.00;99119.13;5032101;28;20324;-73
2024/01/02 11:24:19;;;;;;;;;;;;;;;10.31;100.00;99115.56;5016394;28;19925;-80
2024/01/02 11:26:45;;;;;;;;;;;;;;;10.35;100.00;99111.09;5048290;28;19928;-80
2024/01/02 11:29:21;;;;;;;;;;;;;;;10.36;100.00;99105.81;5036034;28;20326;-85
2024/01/02 11:31:48;;;;;;;;;;;;;;;10.31;100.00;99112.94;5028521;28;19925;-84
2024/01/02 11:34:16;;;;;;;;;;;;;;;10.16;100.00;99103.91;5012121;28;19924;-83
2024/01/02 11:36:54;;;;;;;;;;;;;;;10.25;100.00;99100.09;5022204;28;19923;-85
2024/01/02 11:39:29;;;;;;;;;;;;;;;10.11;100.00;99100.59;5036820;28;20011;-81
2024/01/02 11:42:03;;;;;;;;;;;;;;;10.10;100.00;99091.06;5029612;28;19921;-82
2024/01/02 11:44:28;;;;;;;;;;;;;;;9.94;100.00;99090.81;5024450;28;20372;-73
2024/01/02 11:46:59;;;;;;;;;;;;;;;10.02;100.00;99088.72;5026023;28;20023;-73
2024/01/02 11:49:26;;;;;;;;;;;;;;;10.02;100.00;99075.63;5031740;28;19913;-73
2024/01/02 11:51:56;;;;;;;;;;;;;;;9.88;100.00;99077.91;5027916;28;19970;-73
2024/01/02 11:54:48;;;;;;;;;;;;;;;9.95;100.00;99075.94;5028208;28;19975;-73
2024/01/02 11:57:34;;;;;;;;;;;;;;;10.07;100.00;99059.78;5036177;28;19917;-73
2024/01/02 12:00:03;;;;;;;;;;;;;;;10.11;100.00;99061.34;5035725;28;19917;-73
2024/01/02 12:02:41;;;;;;;;;;;;;;;9.93;100.00;99055.06;5027476;28;20323;-73
2024/01/02 12:05:10;;;;;;;;;;;;;;;10.19;100.00;99048.00;5041956;28;19916;-73
2024/01/02 12:07:38;;;;;;;;;;;;;;;9.89;100.00;99045.63;5029470;28;19921;-73
2024/01/02 12:10:05;;;;;;;;;;;;;;;9.87;100.00;99035.22;5036341;28;19916;-73
2024/01/02 12:12:46;;;;;;;;;;;;;;;9.91;100.00;99029.88;5035593;28;20388;-74
2024/01/02 12:15:11;;;;;;;;;;;;;;;9.87;100.00;99026.53;5054349;28;19927;-73
2024/01/02 12:17:57;;;;;;;;;;;;;;;9.82;100.00;99018.00;5036235;28;19996;-74
2024/01/02 12:20:24;;;;;;;;;;;;;;;9.52;100.00;99013.00;5036441;28;19920;-73
2024/01/02 12:22:49;;;;;;;;;;;;;;;9.64;100.00;98999.47;5035495;28;19963;-73
2024/01/02 12:25:15;;;;;;;;;;;;;;;9.45;100.00;98995.81;5020082;28;19920;-73
2024/01/02 12:27:42;;;;;;;;;;;;;;;9.61;100.00;98986.50;5035115;28;19921;-73
2024/01/02 12:30:10;;;;;;;;;;;;;;;9.40;100.00;98974.25;5036835;28;19909;-73
2024/01/02 12:32:38;;;;;;;;;;;;;;;9.42;100.00;98973.25;5036186;28;19982;-73
2024/01/02 12:35:23;;;;;;;;;;;;;;;9.53;100.00;98957.19;5052280;28;19917;-73
2024/01/02 12:37:57;;;;;;;;;;;;;;;9.50;100.00;98950.28;5035586;28;19971;-72
2024/01/02 12:40:25;;;;;;;;;;;;;;;9.41;100.00;98948.03;5044764;28;19962;-73
2024/01/02 12:42:54;;;;;;;;;;;;;;;9.49;100.00;98924.22;5055146;28;19927;-72
2024/01/02 12:45:22;;;;;;;;;;;;;;;9.25;100.00;98919.00;5039107;28;19921;-73
2024/01/02 12:47:47;;;;;;;;;;;;;;;9.43;100.00;98912.22;5056247;28;20283;-73
2024/01/02 12:50:13;;;;;;;;;;;;;;;9.46;100.00;98906.03;5054132;28;19924;-73